Погода Енвирана неделю

Амасонас, Бразилия

13 - 19 июля
  • 13июля
    Сегодня
    +18°
    +27°
    Небольшая облачность
    ВремяПогодаТемператураВлажностьДавлениеВетер, м/сВероятность осадков
    02:00Практически безоблачно+22°C78 %746 мм3.2 м/с3 %
    05:00Облачно с прояснениями+20°C75 %746 мм3.5 м/с5 %
    08:00Практически безоблачно+20°C76 %748 мм3.5 м/с5 %
    11:00Облачно с прояснениями+22°C58 %748 мм3.8 м/с5 %
    14:00Небольшая облачность+26°C52 %746 мм3.2 м/с5 %
    17:00Ясно и безоблачно+26°C56 %744 мм3.0 м/с5 %
    20:00Ясно и безоблачно+24°C73 %745 мм2.5 м/с5 %
    23:00Практически безоблачно+20°C76 %746 мм2.5 м/с5 %
  • 14июля
    Воскресенье
    +18°
    +28°
    Ясно и безоблачно
    ВремяПогодаТемператураВлажностьДавлениеВетер, м/сВероятность осадков
    02:00Ясно и безоблачно+19°C78 %746 мм2.4 м/с5 %
    05:00Облачно с прояснениями+18°C81 %746 мм2.7 м/с5 %
    08:00Практически безоблачно+19°C77 %748 мм2.7 м/с5 %
    11:00Небольшая облачность+23°C55 %748 мм3.4 м/с5 %
    14:00Ясно и безоблачно+27°C47 %746 мм2.9 м/с5 %
    17:00Ясно и безоблачно+27°C52 %744 мм2.5 м/с5 %
    20:00Ясно и безоблачно+25°C71 %745 мм2.6 м/с5 %
    23:00Ясно и безоблачно+20°C77 %746 мм2.3 м/с5 %
  • 15июля
    Понедельник
    +18°
    +29°
    Ясно и безоблачно
    ВремяПогодаТемператураВлажностьДавлениеВетер, м/сВероятность осадков
    02:00Ясно и безоблачно+19°C80 %746 мм2.4 м/с5 %
    05:00Ясно и безоблачно+19°C83 %746 мм2.8 м/с5 %
    08:00Ясно и безоблачно+19°C78 %747 мм2.7 м/с5 %
    11:00Ясно и безоблачно+24°C56 %748 мм3.2 м/с5 %
    14:00Ясно и безоблачно+28°C48 %746 мм2.9 м/с5 %
    17:00Ясно и безоблачно+27°C52 %745 мм2.9 м/с5 %
    20:00Ясно и безоблачно+25°C70 %746 мм2.6 м/с5 %
    23:00Ясно и безоблачно+20°C79 %747 мм2.5 м/с5 %
  • 16июля
    Вторник
    +17°
    +30°
    Ясно и безоблачно
    ВремяПогодаТемператураВлажностьДавлениеВетер, м/сВероятность осадков
    02:00Ясно и безоблачно+19°C80 %746 мм2.4 м/с5 %
    05:00Ясно и безоблачно+18°C84 %746 мм2.7 м/с5 %
    08:00Ясно и безоблачно+19°C81 %748 мм2.9 м/с5 %
    11:00Ясно и безоблачно+24°C56 %749 мм3.2 м/с5 %
    14:00Ясно и безоблачно+29°C44 %746 мм2.6 м/с5 %
    17:00Ясно и безоблачно+28°C49 %745 мм2.4 м/с5 %
    20:00Ясно и безоблачно+26°C71 %745 мм2.5 м/с5 %
    23:00Ясно и безоблачно+20°C81 %746 мм1.6 м/с5 %
Мы используем cookies
Соглашаюсь